Hoyte, Texas
Current Conditions -  °F | °C
As of 10:35 AM on Thursday 23 Oct 2014 (Local Time) from KT35 Reporting Station
Clear Clear  
Wind Chill: 70°   Ceiling: Unl
Heat Index: 70°   Visibility: 10mi
Dew Point: 58°   Wind: 3mph
Humidity: 65%   Direction: 140°SE
Pressure: 30.16"   Gusts: NA
Location:  30.8332°N, 96.9826°W
Report Text: KT35 231535Z AUTO 14003KT 10SM CLR 21/14 A3016 RMK AO2 T02100142
Loading
Personal Weather Stations






























Interactive Weather Map
Tropical Storm Tracking
New forecast layout! Learn more

10-Day Weather Forecast

Advertisements
Track Severe Weather on mobile